Time;durP1;ratioP1;P1;durP2;ratioP2;P2;SDS_P1;SDS_P2;PMS_P1;PMS_P2;Temp;Humidity;BMP_temperature;BMP_pressure;BME280_temperature;BME280_humidity;BME280_pressure;Samples;Min_cycle;Max_cycle;Signal;HPM_P1;HPM_P2
2021/06/19 00:00:10;;;;;;;1.88;1.70;;;25.60;99.70;;;;;;5019697;28;20113;-72
2021/06/19 00:02:36;;;;;;;2.25;1.90;;;25.50;99.60;;;;;;5019031;28;20037;-73
2021/06/19 00:05:02;;;;;;;1.70;1.60;;;25.50;99.40;;;;;;5012841;28;21934;-72
2021/06/19 00:07:28;;;;;;;4.13;1.40;;;25.50;99.50;;;;;;5012735;28;20018;-72
2021/06/19 00:09:53;;;;;;;3.00;1.73;;;25.50;99.40;;;;;;5015745;28;20050;-72
2021/06/19 00:12:19;;;;;;;3.15;1.60;;;25.40;99.50;;;;;;5012705;28;20030;-72
2021/06/19 00:14:45;;;;;;;2.58;1.52;;;25.40;99.60;;;;;;5015102;28;20038;-73
2021/06/19 00:17:12;;;;;;;3.25;1.50;;;25.30;99.70;;;;;;5017166;28;20026;-72
2021/06/19 00:19:38;;;;;;;3.80;1.60;;;25.30;99.90;;;;;;5012256;28;20057;-72
2021/06/19 00:22:05;;;;;;;1.90;1.45;;;25.30;99.70;;;;;;5014468;28;20021;-72
2021/06/19 00:24:36;;;;;;;3.00;1.58;;;25.30;99.80;;;;;;5012094;28;20026;-72
2021/06/19 00:27:02;;;;;;;3.65;1.60;;;25.10;99.90;;;;;;5011634;28;20042;-72
2021/06/19 00:29:31;;;;;;;1.73;1.27;;;25.10;99.90;;;;;;5012196;28;20030;-72
2021/06/19 00:31:57;;;;;;;1.98;1.70;;;25.10;99.90;;;;;;5012684;28;20415;-72
2021/06/19 00:34:23;;;;;;;6.80;1.38;;;25.00;99.90;;;;;;5012927;28;20084;-72
2021/06/19 00:36:48;;;;;;;2.83;1.63;;;25.10;99.90;;;;;;5018420;28;20496;-72
2021/06/19 00:39:14;;;;;;;2.95;1.42;;;25.10;99.90;;;;;;5023839;28;20044;-72
2021/06/19 00:41:40;;;;;;;2.13;1.88;;;24.90;99.90;;;;;;5017308;28;20059;-72
2021/06/19 00:44:19;;;;;;;2.10;1.63;;;24.90;99.90;;;;;;5020425;28;20038;-72
2021/06/19 00:46:48;;;;;;;2.63;1.90;;;24.90;99.90;;;;;;5012194;28;20014;-72
2021/06/19 00:49:15;;;;;;;2.03;1.80;;;24.80;99.90;;;;;;5014809;28;20075;-72
2021/06/19 00:51:41;;;;;;;3.67;1.90;;;24.90;99.90;;;;;;5011752;28;20026;-72
2021/06/19 00:54:07;;;;;;;5.88;2.15;;;24.90;99.90;;;;;;5012768;28;20033;-72
2021/06/19 00:56:36;;;;;;;3.50;1.90;;;24.90;99.90;;;;;;5011378;28;20509;-72
2021/06/19 00:59:03;;;;;;;3.03;2.30;;;24.90;99.90;;;;;;5010011;28;20041;-72
2021/06/19 01:01:28;;;;;;;2.28;2.00;;;24.90;99.90;;;;;;5014253;28;20084;-72
2021/06/19 01:03:54;;;;;;;3.65;2.00;;;24.90;99.90;;;;;;5013254;28;20022;-72
2021/06/19 01:06:20;;;;;;;4.00;1.95;;;24.80;99.90;;;;;;5016311;28;20429;-72
2021/06/19 01:08:45;;;;;;;3.40;1.80;;;24.80;99.90;;;;;;5016603;28;20040;-72
2021/06/19 01:11:11;;;;;;;2.67;1.98;;;24.80;99.90;;;;;;5018427;28;20018;-72
2021/06/19 01:13:37;;;;;;;4.18;2.20;;;24.70;99.90;;;;;;5022650;28;20037;-72
2021/06/19 01:16:02;;;;;;;2.25;1.67;;;24.70;99.90;;;;;;5012795;28;20025;-72
2021/06/19 01:18:28;;;;;;;5.18;1.90;;;24.60;99.90;;;;;;5015384;28;20483;-72
2021/06/19 01:20:54;;;;;;;3.20;2.00;;;24.50;99.90;;;;;;5014523;28;20362;-72
2021/06/19 01:23:20;;;;;;;4.10;2.30;;;24.50;99.90;;;;;;5017917;28;20470;-72
2021/06/19 01:25:46;;;;;;;7.50;2.13;;;24.50;99.90;;;;;;5015893;28;20026;-72
2021/06/19 01:28:12;;;;;;;3.50;2.10;;;24.50;99.90;;;;;;5018042;28;20022;-72
2021/06/19 01:30:38;;;;;;;3.80;1.98;;;24.50;99.90;;;;;;5014166;28;20166;-72
2021/06/19 01:33:08;;;;;;;3.35;2.13;;;24.40;99.90;;;;;;5014706;28;20022;-72
2021/06/19 01:35:35;;;;;;;2.20;1.95;;;24.30;99.90;;;;;;5012749;28;20037;-73
2021/06/19 01:38:01;;;;;;;2.22;2.03;;;24.30;99.90;;;;;;5016210;28;20355;-72
2021/06/19 01:40:30;;;;;;;5.53;2.20;;;24.20;99.90;;;;;;5012037;28;20045;-72
2021/06/19 01:42:58;;;;;;;3.08;2.30;;;24.20;99.90;;;;;;5016146;28;20060;-72
2021/06/19 01:45:32;;;;;;;2.42;1.70;;;24.20;99.90;;;;;;5016754;28;20542;-72
2021/06/19 01:48:07;;;;;;;3.60;2.00;;;24.10;99.90;;;;;;5012357;28;20034;-73
2021/06/19 01:50:34;;;;;;;3.05;2.00;;;24.20;99.90;;;;;;5013581;28;20487;-72
2021/06/19 01:53:01;;;;;;;4.15;2.35;;;24.10;99.90;;;;;;5015497;28;20131;-72
2021/06/19 01:55:27;;;;;;;2.22;2.10;;;24.10;99.90;;;;;;5016035;28;20045;-72
2021/06/19 01:57:56;;;;;;;4.15;2.65;;;24.10;99.90;;;;;;5018732;28;20041;-72
2021/06/19 02:00:26;;;;;;;3.33;2.28;;;24.10;99.90;;;;;;5021335;28;20096;-72
2021/06/19 02:02:52;;;;;;;2.63;2.30;;;24.00;99.90;;;;;;5017942;28;20080;-72
2021/06/19 02:05:20;;;;;;;2.38;2.00;;;24.00;99.90;;;;;;5018538;28;20109;-72
2021/06/19 02:07:58;;;;;;;3.22;2.80;;;24.00;99.90;;;;;;5016591;28;20406;-72
2021/06/19 02:10:34;;;;;;;3.10;1.95;;;24.10;99.90;;;;;;5016646;28;20391;-72
2021/06/19 02:13:01;;;;;;;5.22;2.05;;;24.00;99.90;;;;;;5016619;28;20042;-72
2021/06/19 02:15:28;;;;;;;3.75;2.40;;;24.00;99.90;;;;;;5013720;28;20080;-72
2021/06/19 02:17:55;;;;;;;2.53;2.13;;;23.90;99.90;;;;;;5022720;28;20034;-72
2021/06/19 02:20:22;;;;;;;2.65;2.20;;;23.70;99.90;;;;;;5017478;28;20037;-72
2021/06/19 02:22:49;;;;;;;2.70;2.50;;;23.70;99.90;;;;;;5021599;28;20029;-71
2021/06/19 02:25:17;;;;;;;2.40;2.20;;;23.70;99.90;;;;;;5016211;28;20105;-72
2021/06/19 02:28:15;;;;;;;2.33;2.10;;;23.70;99.90;;;;;;5018033;28;20487;-71
2021/06/19 02:30:45;;;;;;;3.28;2.60;;;23.70;99.90;;;;;;4977455;28;20398;-72
2021/06/19 02:33:11;;;;;;;3.50;2.28;;;23.70;99.90;;;;;;5023629;28;20026;-72
2021/06/19 02:35:39;;;;;;;5.32;2.30;;;23.60;99.90;;;;;;5016065;28;20030;-72
2021/06/19 02:38:06;;;;;;;2.38;2.00;;;23.60;99.90;;;;;;5020417;28;20026;-72
2021/06/19 02:40:33;;;;;;;3.13;2.50;;;23.70;99.90;;;;;;5017354;28;20061;-72
2021/06/19 02:42:59;;;;;;;5.25;2.42;;;23.60;99.90;;;;;;5013113;28;20101;-72
2021/06/19 02:45:25;;;;;;;2.85;2.45;;;23.60;99.90;;;;;;5019847;28;20410;-72
2021/06/19 02:47:53;;;;;;;3.47;2.15;;;23.60;99.90;;;;;;5021818;28;20034;-72
2021/06/19 02:50:22;;;;;;;3.55;2.08;;;23.50;99.90;;;;;;5013856;28;20378;-72
2021/06/19 02:52:48;;;;;;;5.10;2.35;;;23.50;99.90;;;;;;5018243;28;20060;-72
2021/06/19 02:55:17;;;;;;;2.80;2.13;;;23.50;99.90;;;;;;5021472;28;20068;-72
2021/06/19 02:57:43;;;;;;;2.15;2.03;;;23.50;99.90;;;;;;5016966;28;20017;-72
2021/06/19 03:00:12;;;;;;;4.53;2.30;;;23.50;99.90;;;;;;5021268;28;20029;-72
2021/06/19 03:02:37;;;;;;;2.20;2.00;;;23.50;99.90;;;;;;5018420;28;20072;-72
2021/06/19 03:05:05;;;;;;;2.20;2.00;;;23.50;99.90;;;;;;5022165;28;20025;-72
2021/06/19 03:07:31;;;;;;;3.35;2.17;;;23.40;99.90;;;;;;5016962;28;20026;-72
2021/06/19 03:09:56;;;;;;;4.68;2.00;;;23.40;99.90;;;;;;5015168;28;20073;-72
2021/06/19 03:12:22;;;;;;;1.98;1.45;;;23.50;99.90;;;;;;5015521;28;20030;-72
2021/06/19 03:14:51;;;;;;;2.90;1.83;;;23.50;99.90;;;;;;5016879;28;20037;-72
2021/06/19 03:17:16;;;;;;;2.88;2.00;;;23.50;99.90;;;;;;5020451;28;20035;-72
2021/06/19 03:19:42;;;;;;;2.95;2.30;;;23.60;99.90;;;;;;5018820;28;20101;-72
2021/06/19 03:22:07;;;;;;;2.50;2.30;;;23.60;99.90;;;;;;5012393;28;20486;-72
2021/06/19 03:24:38;;;;;;;4.10;2.17;;;23.60;99.90;;;;;;5019852;28;20054;-72
2021/06/19 03:27:04;;;;;;;2.30;1.70;;;23.50;99.90;;;;;;5016198;28;20099;-72
2021/06/19 03:29:30;;;;;;;4.57;2.33;;;23.50;99.90;;;;;;5015584;28;20021;-72
2021/06/19 03:31:55;;;;;;;2.00;1.90;;;23.40;99.90;;;;;;5020400;28;20391;-72
2021/06/19 03:34:22;;;;;;;2.15;1.90;;;23.40;99.90;;;;;;5015099;28;20144;-72
2021/06/19 03:36:48;;;;;;;2.70;1.90;;;23.40;99.90;;;;;;5019445;28;20056;-72
2021/06/19 03:39:15;;;;;;;2.83;2.15;;;23.40;99.90;;;;;;5015492;28;20057;-72
2021/06/19 03:41:44;;;;;;;3.15;2.30;;;23.40;99.90;;;;;;5015553;28;20022;-71
2021/06/19 03:44:12;;;;;;;2.28;2.08;;;23.40;99.90;;;;;;5019185;28;20153;-72
2021/06/19 03:46:39;;;;;;;3.00;2.17;;;23.40;99.90;;;;;;5015885;28;20071;-72
2021/06/19 03:49:05;;;;;;;2.90;1.92;;;23.40;99.90;;;;;;5016255;28;20040;-72
2021/06/19 03:51:30;;;;;;;3.22;2.00;;;23.30;99.90;;;;;;5018429;28;20061;-72
2021/06/19 03:53:56;;;;;;;2.53;2.15;;;23.30;99.90;;;;;;5019807;28;20034;-72
2021/06/19 03:56:22;;;;;;;3.38;2.08;;;23.40;99.90;;;;;;5015238;28;20151;-72
2021/06/19 03:58:47;;;;;;;2.30;2.10;;;23.50;99.90;;;;;;5018824;28;20025;-72
2021/06/19 04:01:13;;;;;;;5.35;2.30;;;23.40;99.90;;;;;;5015288;28;20030;-72
2021/06/19 04:03:39;;;;;;;2.92;2.30;;;23.40;99.90;;;;;;5014378;28;20063;-72
2021/06/19 04:06:05;;;;;;;2.50;2.28;;;23.30;99.90;;;;;;5014828;28;20041;-72
2021/06/19 04:08:30;;;;;;;2.85;2.60;;;23.30;99.90;;;;;;5018705;28;20468;-72
2021/06/19 04:10:56;;;;;;;2.38;2.17;;;23.20;99.90;;;;;;5014306;28;20037;-72
2021/06/19 04:13:21;;;;;;;11.60;2.50;;;23.20;99.90;;;;;;5021265;28;20088;-72
2021/06/19 04:15:47;;;;;;;3.50;2.25;;;23.30;99.90;;;;;;5016352;28;20033;-72
2021/06/19 04:18:13;;;;;;;2.72;2.33;;;23.30;99.90;;;;;;5018570;28;20065;-72
2021/06/19 04:20:38;;;;;;;4.07;2.60;;;23.10;99.90;;;;;;5018093;28;20471;-72
2021/06/19 04:23:04;;;;;;;2.38;2.25;;;22.90;99.90;;;;;;5014349;28;20018;-72
2021/06/19 04:25:30;;;;;;;2.80;2.40;;;22.90;99.90;;;;;;5020296;28;20460;-72
2021/06/19 04:27:57;;;;;;;3.03;2.83;;;22.90;99.90;;;;;;5014918;28;20042;-72
2021/06/19 04:30:24;;;;;;;2.70;2.50;;;22.90;99.90;;;;;;5019385;28;20018;-72
2021/06/19 04:32:51;;;;;;;2.70;2.50;;;22.90;99.90;;;;;;5021131;28;20095;-73
2021/06/19 04:35:18;;;;;;;2.95;2.58;;;22.80;99.90;;;;;;5016994;28;20037;-72
2021/06/19 04:37:44;;;;;;;5.53;2.80;;;22.60;99.90;;;;;;5017693;28;20068;-72
2021/06/19 04:40:21;;;;;;;4.05;3.08;;;22.60;99.90;;;;;;5020977;28;20109;-71
2021/06/19 04:43:05;;;;;;;3.53;3.22;;;22.60;99.90;;;;;;5022617;28;20024;-72
2021/06/19 04:45:31;;;;;;;2.92;2.72;;;22.60;99.90;;;;;;5017723;28;20025;-72
2021/06/19 04:47:59;;;;;;;3.38;3.17;;;22.60;99.90;;;;;;5025950;28;20057;-72
2021/06/19 04:50:25;;;;;;;3.72;2.92;;;22.70;99.90;;;;;;5019469;28;20386;-72
2021/06/19 04:52:52;;;;;;;3.38;3.13;;;22.80;99.90;;;;;;5021514;28;20033;-72
2021/06/19 04:55:19;;;;;;;5.47;3.40;;;22.70;99.90;;;;;;5018775;28;20037;-72
2021/06/19 04:57:58;;;;;;;3.47;3.17;;;22.70;99.90;;;;;;5021468;28;20048;-72
2021/06/19 05:00:27;;;;;;;5.25;4.10;;;22.80;99.90;;;;;;5021702;28;20065;-72
2021/06/19 05:02:54;;;;;;;3.90;3.60;;;22.70;99.90;;;;;;5023450;28;20064;-71
2021/06/19 05:05:21;;;;;;;5.10;4.53;;;22.80;99.90;;;;;;5021723;28;20939;-72
2021/06/19 05:07:47;;;;;;;4.78;4.38;;;22.80;99.90;;;;;;5016695;28;20092;-72
2021/06/19 05:10:13;;;;;;;4.93;4.43;;;22.60;99.90;;;;;;5017378;28;20438;-72
2021/06/19 05:12:43;;;;;;;4.55;4.15;;;22.70;99.90;;;;;;5021628;28;20413;-72
2021/06/19 05:15:10;;;;;;;4.80;4.40;;;22.70;99.90;;;;;;5023641;28;20029;-72
2021/06/19 05:17:37;;;;;;;4.78;4.30;;;22.70;99.90;;;;;;5019519;28;20032;-72
2021/06/19 05:20:04;;;;;;;5.43;4.93;;;22.70;99.90;;;;;;5020270;28;20026;-72
2021/06/19 05:22:29;;;;;;;5.28;4.13;;;22.70;99.90;;;;;;5020100;28;20383;-72
2021/06/19 05:24:55;;;;;;;4.80;4.30;;;22.60;99.90;;;;;;5021377;28;20068;-72
2021/06/19 05:27:21;;;;;;;4.97;4.45;;;22.60;99.90;;;;;;5016949;28;20018;-72
2021/06/19 05:29:47;;;;;;;4.47;4.07;;;22.70;99.90;;;;;;5014663;28;20030;-72
2021/06/19 05:32:12;;;;;;;5.00;4.43;;;22.80;99.90;;;;;;5022059;28;20028;-72
2021/06/19 05:34:41;;;;;;;5.22;3.75;;;22.70;99.90;;;;;;5018527;28;20063;-72
2021/06/19 05:37:06;;;;;;;5.68;4.22;;;22.80;99.90;;;;;;5019374;28;20021;-72
2021/06/19 05:39:32;;;;;;;5.57;4.25;;;22.80;99.90;;;;;;5016758;28;20479;-72
2021/06/19 05:41:58;;;;;;;6.70;4.00;;;22.70;99.90;;;;;;5022724;28;20024;-72
2021/06/19 05:44:23;;;;;;;4.43;4.10;;;22.70;99.90;;;;;;5013997;28;20117;-72
2021/06/19 05:46:49;;;;;;;3.85;3.47;;;22.70;99.90;;;;;;5020121;28;20022;-72
2021/06/19 05:49:15;;;;;;;4.03;3.60;;;22.60;99.90;;;;;;5017102;28;20029;-73
2021/06/19 05:51:40;;;;;;;3.95;3.65;;;22.60;99.90;;;;;;5021708;28;20155;-74
2021/06/19 05:54:06;;;;;;;4.22;3.65;;;22.60;99.90;;;;;;5015325;28;20073;-73
2021/06/19 05:56:32;;;;;;;4.70;3.50;;;22.70;99.90;;;;;;5019968;28;20014;-73
2021/06/19 05:58:58;;;;;;;4.50;4.03;;;22.70;99.90;;;;;;5015733;28;20029;-73
2021/06/19 06:01:24;;;;;;;4.07;3.53;;;22.70;99.90;;;;;;5020460;28;20496;-73
2021/06/19 06:03:49;;;;;;;3.88;3.40;;;22.70;99.90;;;;;;5024412;28;20104;-74
2021/06/19 06:06:18;;;;;;;3.28;3.08;;;22.70;99.90;;;;;;5012350;28;20057;-74
2021/06/19 06:08:45;;;;;;;4.10;3.42;;;22.70;99.90;;;;;;5014010;28;20040;-73
2021/06/19 06:11:11;;;;;;;3.08;2.88;;;22.70;99.90;;;;;;5018588;28;20042;-73
2021/06/19 06:13:37;;;;;;;3.45;3.13;;;22.60;99.90;;;;;;5021071;28;20395;-73
2021/06/19 06:16:03;;;;;;;4.20;3.30;;;22.70;99.90;;;;;;5018165;28;20025;-73
2021/06/19 06:18:28;;;;;;;3.70;3.22;;;22.80;99.90;;;;;;5017115;28;20034;-74
2021/06/19 06:20:55;;;;;;;5.20;3.25;;;22.90;99.90;;;;;;5017422;28;20029;-73
2021/06/19 06:23:23;;;;;;;3.38;3.00;;;22.90;99.90;;;;;;5018353;28;20104;-73
2021/06/19 06:25:52;;;;;;;3.42;3.13;;;22.90;99.90;;;;;;5018829;28;20529;-72
2021/06/19 06:28:18;;;;;;;3.50;3.25;;;22.80;99.90;;;;;;5017772;28;20084;-73
2021/06/19 06:30:45;;;;;;;3.70;3.40;;;22.90;99.90;;;;;;5020476;28;20430;-73
2021/06/19 06:33:10;;;;;;;3.72;3.33;;;23.00;99.90;;;;;;5024861;28;20038;-73
2021/06/19 06:35:36;;;;;;;3.65;3.35;;;23.10;99.90;;;;;;5016165;28;20045;-72
2021/06/19 06:38:02;;;;;;;3.00;2.80;;;23.30;99.90;;;;;;5020759;28;20394;-73
2021/06/19 06:40:28;;;;;;;5.10;3.30;;;23.30;99.90;;;;;;5018689;28;20034;-73
2021/06/19 06:42:54;;;;;;;5.47;3.08;;;23.30;99.90;;;;;;5015666;28;20030;-72
2021/06/19 06:45:20;;;;;;;2.88;2.63;;;23.50;99.90;;;;;;5019405;28;20018;-72
2021/06/19 06:47:45;;;;;;;5.57;3.08;;;23.60;99.90;;;;;;5016739;28;20029;-72
2021/06/19 06:50:12;;;;;;;3.35;2.85;;;23.70;99.90;;;;;;5014475;28;20375;-72
2021/06/19 06:52:38;;;;;;;3.53;3.20;;;23.90;99.90;;;;;;5020639;28;20039;-71
2021/06/19 06:55:05;;;;;;;3.30;3.00;;;23.80;99.90;;;;;;5015401;28;20546;-73
2021/06/19 06:57:30;;;;;;;3.75;2.72;;;23.80;99.90;;;;;;5015305;28;20022;-72
2021/06/19 06:59:56;;;;;;;3.10;2.83;;;23.90;99.90;;;;;;5020910;28;20117;-72
2021/06/19 07:02:21;;;;;;;3.13;2.92;;;24.00;99.90;;;;;;5015910;28;20018;-71
2021/06/19 07:04:49;;;;;;;4.38;3.83;;;24.20;99.90;;;;;;5023395;28;20030;-71
2021/06/19 07:07:15;;;;;;;4.03;3.72;;;24.30;99.90;;;;;;5018012;28;20018;-70
2021/06/19 07:09:41;;;;;;;4.53;3.65;;;24.20;99.90;;;;;;5021926;28;20038;-71
2021/06/19 07:12:07;;;;;;;4.70;4.05;;;24.20;99.90;;;;;;5013893;28;20076;-71
2021/06/19 07:14:33;;;;;;;7.07;3.95;;;24.10;99.90;;;;;;5020073;28;20084;-71
2021/06/19 07:16:59;;;;;;;5.85;4.25;;;24.10;99.90;;;;;;5018556;28;20049;-71
2021/06/19 07:19:24;;;;;;;4.38;4.00;;;24.00;99.90;;;;;;5018166;28;20072;-71
2021/06/19 07:21:50;;;;;;;5.60;4.38;;;24.10;99.90;;;;;;5015147;28;20076;-71
2021/06/19 07:24:15;;;;;;;4.43;4.03;;;24.10;99.90;;;;;;5019128;28;20037;-72
2021/06/19 07:26:41;;;;;;;5.43;4.93;;;24.20;99.90;;;;;;5015210;28;20041;-71
2021/06/19 07:29:07;;;;;;;4.22;3.80;;;24.20;99.90;;;;;;5019917;28;20397;-72
2021/06/19 07:31:32;;;;;;;5.10;4.68;;;24.30;99.90;;;;;;5017740;28;20100;-71
2021/06/19 07:33:58;;;;;;;4.57;4.18;;;24.20;99.90;;;;;;5015959;28;20076;-72
2021/06/19 07:36:24;;;;;;;4.50;4.20;;;24.40;99.90;;;;;;5015456;28;20032;-71
2021/06/19 07:38:49;;;;;;;5.32;3.67;;;24.20;99.90;;;;;;5017547;28;20045;-71
2021/06/19 07:41:15;;;;;;;6.05;4.80;;;24.40;99.90;;;;;;5012307;28;20022;-71
2021/06/19 07:43:41;;;;;;;5.22;4.28;;;24.40;99.90;;;;;;5015806;28;20486;-72
2021/06/19 07:46:07;;;;;;;4.30;3.92;;;24.40;99.90;;;;;;5016004;28;20631;-71
2021/06/19 07:48:33;;;;;;;4.57;4.28;;;24.50;99.90;;;;;;5017280;28;20052;-72
2021/06/19 07:50:59;;;;;;;6.40;5.13;;;24.30;99.90;;;;;;5015376;28;20471;-72
2021/06/19 07:53:24;;;;;;;10.40;4.60;;;24.30;99.90;;;;;;5017584;28;20037;-72
2021/06/19 07:55:50;;;;;;;4.85;4.38;;;24.50;99.90;;;;;;5013596;28;20033;-72
2021/06/19 07:58:15;;;;;;;4.28;3.90;;;24.50;99.90;;;;;;5012651;28;20398;-71
2021/06/19 08:00:43;;;;;;;4.43;4.03;;;24.70;99.90;;;;;;5015939;28;20118;-73
2021/06/19 08:03:08;;;;;;;4.72;4.32;;;24.60;99.90;;;;;;5012608;28;20022;-73
2021/06/19 08:05:34;;;;;;;4.80;4.45;;;24.60;99.90;;;;;;5011691;28;20018;-73
2021/06/19 08:08:00;;;;;;;5.22;4.30;;;24.70;99.90;;;;;;5019189;28;20060;-73
2021/06/19 08:10:26;;;;;;;4.97;4.47;;;24.60;99.90;;;;;;5013515;28;20034;-73
2021/06/19 08:12:52;;;;;;;5.40;5.05;;;24.50;99.90;;;;;;5013314;28;20442;-73
2021/06/19 08:15:19;;;;;;;6.32;5.82;;;24.50;99.90;;;;;;5019684;28;20061;-72
2021/06/19 08:17:45;;;;;;;5.70;5.30;;;24.40;99.90;;;;;;5020155;28;20018;-73
2021/06/19 08:20:12;;;;;;;6.30;5.70;;;24.30;99.90;;;;;;5022105;28;20116;-73
2021/06/19 08:22:38;;;;;;;5.80;4.93;;;24.10;99.90;;;;;;5021655;28;20521;-73
2021/06/19 08:25:05;;;;;;;5.20;4.68;;;24.40;99.90;;;;;;5020254;28;20109;-73
2021/06/19 08:27:31;;;;;;;5.65;5.25;;;24.50;99.90;;;;;;5014950;28;20033;-73
2021/06/19 08:29:57;;;;;;;6.70;4.78;;;24.70;99.90;;;;;;5017801;28;20029;-73
2021/06/19 08:32:23;;;;;;;5.53;5.13;;;24.80;99.90;;;;;;5020776;28;20029;-73
2021/06/19 08:34:49;;;;;;;5.68;5.15;;;24.80;99.90;;;;;;5018136;28;20038;-73
2021/06/19 08:37:14;;;;;;;6.70;6.10;;;24.70;99.90;;;;;;5019393;28;20017;-73
2021/06/19 08:39:40;;;;;;;6.90;6.05;;;24.70;99.90;;;;;;5014725;28;20021;-73
2021/06/19 08:42:06;;;;;;;6.45;5.95;;;24.80;99.90;;;;;;5021087;28;20037;-73
2021/06/19 08:44:33;;;;;;;6.22;5.72;;;24.80;99.90;;;;;;5017527;28;20072;-74
2021/06/19 08:46:59;;;;;;;6.20;5.60;;;24.80;99.90;;;;;;5018600;28;20040;-76
2021/06/19 08:49:26;;;;;;;12.15;7.13;;;24.80;99.90;;;;;;5018497;28;20493;-73
2021/06/19 08:51:53;;;;;;;17.38;6.80;;;24.80;99.90;;;;;;5024819;28;20028;-73
2021/06/19 08:54:21;;;;;;;10.30;5.93;;;24.70;99.90;;;;;;5018258;28;20033;-73
2021/06/19 08:56:47;;;;;;;6.20;5.60;;;24.60;99.90;;;;;;5022786;28;20052;-73
2021/06/19 08:59:13;;;;;;;6.65;6.00;;;24.70;99.90;;;;;;5022444;28;20022;-73
2021/06/19 09:01:40;;;;;;;7.72;7.03;;;24.80;99.90;;;;;;5014510;28;20029;-72
2021/06/19 09:04:08;;;;;;;6.75;6.03;;;24.90;99.90;;;;;;5020816;28;20014;-73
2021/06/19 09:06:42;;;;;;;6.85;6.25;;;24.90;99.90;;;;;;5018396;28;20052;-72
2021/06/19 09:09:18;;;;;;;8.73;6.82;;;24.90;99.90;;;;;;5037261;28;20096;-73
2021/06/19 09:11:45;;;;;;;8.70;6.68;;;25.00;99.90;;;;;;5018865;28;20021;-74
2021/06/19 09:14:16;;;;;;;7.93;7.13;;;25.00;99.90;;;;;;5020189;28;20389;-73
2021/06/19 09:16:44;;;;;;;8.80;6.80;;;25.20;99.90;;;;;;5019521;28;20359;-73
2021/06/19 09:19:34;;;;;;;7.70;6.45;;;25.30;99.90;;;;;;5017941;28;20077;-72
2021/06/19 09:22:08;;;;;;;8.05;7.35;;;25.30;99.90;;;;;;5021486;28;20037;-72
2021/06/19 09:25:01;;;;;;;9.88;6.80;;;25.10;99.90;;;;;;5015858;28;20037;-72
2021/06/19 09:27:27;;;;;;;;;;;25.30;99.90;;;;;;5018725;28;20482;-72
2021/06/19 09:30:13;;;;;;;7.97;7.18;;;25.40;99.90;;;;;;5017943;28;20396;-73
2021/06/19 09:32:42;;;;;;;8.07;7.38;;;25.50;99.90;;;;;;5019850;28;20026;-74
2021/06/19 09:35:12;;;;;;;7.53;6.60;;;25.80;99.90;;;;;;5021463;28;20037;-73
2021/06/19 09:37:43;;;;;;;8.02;7.22;;;25.90;99.90;;;;;;5016698;28;20022;-73
2021/06/19 09:40:26;;;;;;;7.25;5.75;;;25.90;99.70;;;;;;5021843;28;20030;-73
2021/06/19 09:42:55;;;;;;;7.35;6.65;;;26.00;99.90;;;;;;5016757;28;20490;-73
2021/06/19 09:45:24;;;;;;;7.43;6.82;;;26.00;99.90;;;;;;5022686;28;20018;-73
2021/06/19 09:47:51;;;;;;;8.77;6.68;;;25.80;99.90;;;;;;5018786;28;20137;-73
2021/06/19 09:50:20;;;;;;;6.78;6.28;;;25.80;99.90;;;;;;5016570;28;20045;-74
2021/06/19 09:52:47;;;;;;;6.75;6.15;;;25.70;99.90;;;;;;5014304;28;20100;-73
2021/06/19 09:55:16;;;;;;;8.88;7.38;;;25.60;99.90;;;;;;5020859;28;20405;-72
2021/06/19 09:57:49;;;;;;;8.75;8.10;;;25.60;99.90;;;;;;5015221;28;20018;-73
2021/06/19 10:00:18;;;;;;;9.45;7.28;;;25.60;99.90;;;;;;5021052;28;20030;-72
2021/06/19 10:02:45;;;;;;;10.00;9.05;;;25.70;99.90;;;;;;5015621;28;20100;-73
2021/06/19 10:05:11;;;;;;;8.52;7.82;;;25.60;99.90;;;;;;5023614;28;20025;-73
2021/06/19 10:07:37;;;;;;;8.40;7.70;;;25.90;99.90;;;;;;5014060;28;20037;-73
2021/06/19 10:10:09;;;;;;;7.43;6.90;;;26.00;99.70;;;;;;5018650;28;20491;-74
2021/06/19 10:12:36;;;;;;;7.43;6.72;;;26.20;99.80;;;;;;5020375;28;20080;-73
2021/06/19 10:15:11;;;;;;;8.95;7.20;;;26.50;99.70;;;;;;5019347;28;20041;-73
2021/06/19 10:17:39;;;;;;;6.40;5.82;;;26.90;99.70;;;;;;4996121;28;20025;-73
2021/06/19 10:20:08;;;;;;;6.88;6.15;;;27.00;99.40;;;;;;5014729;28;20091;-73
2021/06/19 10:22:35;;;;;;;7.50;6.57;;;26.90;99.10;;;;;;5014018;28;20034;-73
2021/06/19 10:25:11;;;;;;;8.38;7.53;;;26.90;99.30;;;;;;5017651;28;20044;-73
2021/06/19 10:27:48;;;;;;;9.32;8.43;;;26.90;98.80;;;;;;5015755;28;20068;-74
2021/06/19 10:30:15;;;;;;;7.85;7.20;;;26.90;99.10;;;;;;5013308;28;20037;-74
2021/06/19 10:32:49;;;;;;;6.95;6.45;;;27.00;99.10;;;;;;5013421;28;20022;-73
2021/06/19 10:35:17;;;;;;;9.10;8.20;;;27.10;99.70;;;;;;5017714;28;20080;-73
2021/06/19 10:37:47;;;;;;;9.63;7.50;;;27.30;98.90;;;;;;5014492;28;20026;-71
2021/06/19 10:40:26;;;;;;;8.38;7.68;;;27.00;98.70;;;;;;5019170;28;20041;-73
2021/06/19 10:43:13;;;;;;;7.57;6.97;;;27.00;98.60;;;;;;5017493;28;20105;-74
2021/06/19 10:45:43;;;;;;;7.55;6.85;;;27.10;98.80;;;;;;5021299;28;20714;-74
2021/06/19 10:48:17;;;;;;;8.23;7.55;;;27.10;98.80;;;;;;5018294;28;20038;-73
2021/06/19 10:50:46;;;;;;;7.45;6.82;;;27.10;98.90;;;;;;5012208;28;20053;-73
2021/06/19 10:53:17;;;;;;;6.88;6.28;;;27.10;98.90;;;;;;5016845;28;20413;-73
2021/06/19 10:55:43;;;;;;;7.03;6.32;;;27.30;98.20;;;;;;5016209;28;20037;-73
2021/06/19 10:58:33;;;;;;;8.40;7.63;;;27.30;98.20;;;;;;5016936;28;20040;-73
2021/06/19 11:01:04;;;;;;;9.30;8.40;;;27.60;98.10;;;;;;5017756;28;20034;-73
2021/06/19 11:03:48;;;;;;;6.13;5.63;;;27.70;98.40;;;;;;5016675;28;20028;-72
2021/06/19 11:06:30;;;;;;;5.95;5.35;;;27.90;98.30;;;;;;5015349;28;20525;-74
2021/06/19 11:09:14;;;;;;;6.45;4.70;;;27.90;97.80;;;;;;5008502;28;20033;-72
2021/06/19 11:12:04;;;;;;;4.85;4.45;;;27.90;96.80;;;;;;5017427;28;20017;-76
2021/06/19 11:14:39;;;;;;;5.95;5.45;;;27.70;97.50;;;;;;5015471;28;20095;-71
2021/06/19 11:17:26;;;;;;;6.47;5.95;;;27.60;97.20;;;;;;5020036;28;20034;-72
2021/06/19 11:20:03;;;;;;;5.93;5.43;;;27.70;97.40;;;;;;5007332;28;20042;-78
2021/06/19 11:22:38;;;;;;;6.03;5.43;;;27.80;97.10;;;;;;5017377;28;20495;-77
2021/06/19 11:25:09;;;;;;;6.20;5.05;;;28.00;97.10;;;;;;5016772;28;20021;-77
2021/06/19 11:27:54;;;;;;;7.25;6.55;;;27.90;96.80;;;;;;5013996;28;20026;-78
2021/06/19 11:30:37;;;;;;;6.90;6.30;;;27.80;97.10;;;;;;5014795;28;20060;-69
2021/06/19 11:35:48;;;;;;;4.93;4.43;;;27.50;97.80;;;;;;5018880;28;20049;-69
2021/06/19 11:38:16;;;;;;;6.43;5.35;;;27.30;97.50;;;;;;5010391;28;20045;-70
2021/06/19 11:40:42;;;;;;;6.00;5.07;;;27.30;97.50;;;;;;5015499;28;20027;-70
2021/06/19 11:43:10;;;;;;;5.60;5.20;;;27.30;97.40;;;;;;5017697;28;20159;-70
2021/06/19 11:45:38;;;;;;;5.47;5.05;;;27.20;97.30;;;;;;5018443;28;20021;-69
2021/06/19 11:48:06;;;;;;;6.47;5.25;;;27.30;97.30;;;;;;5015966;28;20037;-70
2021/06/19 11:50:34;;;;;;;6.45;5.90;;;27.30;97.90;;;;;;5008293;28;20033;-69
2021/06/19 11:53:27;;;;;;;6.30;4.88;;;27.30;97.80;;;;;;5014220;28;20101;-69
2021/06/19 11:56:13;;;;;;;7.53;5.03;;;27.20;97.50;;;;;;5004939;28;20465;-71
2021/06/19 11:58:43;;;;;;;4.45;4.15;;;27.20;97.30;;;;;;4995007;28;20036;-70
2021/06/19 12:01:09;;;;;;;6.28;3.75;;;27.30;97.70;;;;;;5013037;28;20032;-72
2021/06/19 12:03:35;;;;;;;4.25;3.88;;;27.30;97.30;;;;;;5006856;28;20034;-72
2021/06/19 12:06:01;;;;;;;4.40;4.10;;;27.50;97.30;;;;;;5018147;28;20033;-71
2021/06/19 12:08:27;;;;;;;3.70;3.50;;;27.70;96.70;;;;;;5003482;28;20018;-71
2021/06/19 12:10:53;;;;;;;4.75;4.03;;;27.70;97.00;;;;;;5006596;28;20063;-71
2021/06/19 12:13:40;;;;;;;7.60;6.68;;;27.90;98.00;;;;;;5003405;28;20033;-72
2021/06/19 12:16:07;;;;;;;7.20;6.50;;;28.00;97.90;;;;;;5001169;28;20042;-72
2021/06/19 12:18:33;;;;;;;7.68;7.05;;;28.40;98.20;;;;;;4999341;28;20360;-73
2021/06/19 12:21:04;;;;;;;6.93;6.43;;;28.70;97.70;;;;;;5013725;28;20127;-71
2021/06/19 12:23:33;;;;;;;7.28;6.47;;;28.80;97.30;;;;;;5013949;28;20026;-71
2021/06/19 12:26:08;;;;;;;6.68;6.03;;;28.80;97.40;;;;;;5014651;28;20570;-72
2021/06/19 12:28:36;;;;;;;9.63;8.73;;;29.10;96.20;;;;;;5016245;28;20475;-70
2021/06/19 12:31:03;;;;;;;7.53;6.80;;;29.20;96.10;;;;;;5017400;28;20037;-70
2021/06/19 12:33:34;;;;;;;8.73;5.68;;;29.20;96.50;;;;;;5014587;28;20422;-71
2021/06/19 12:36:09;;;;;;;6.90;6.30;;;28.90;96.70;;;;;;5017384;28;20042;-72
2021/06/19 12:38:35;;;;;;;7.60;6.90;;;28.70;96.60;;;;;;5017749;28;20029;-71
2021/06/19 12:41:04;;;;;;;7.88;7.18;;;28.80;97.30;;;;;;5014887;28;20065;-70
2021/06/19 12:43:30;;;;;;;7.95;7.05;;;28.90;96.70;;;;;;5015671;28;20097;-70
2021/06/19 12:45:55;;;;;;;11.20;8.25;;;29.00;96.50;;;;;;5003239;28;20117;-70
2021/06/19 12:48:24;;;;;;;8.85;8.05;;;29.00;97.00;;;;;;5008256;28;20038;-71
2021/06/19 12:50:56;;;;;;;8.80;8.10;;;29.00;96.60;;;;;;5010721;28;20030;-74
2021/06/19 12:53:33;;;;;;;7.53;6.88;;;29.10;96.60;;;;;;5003933;28;20049;-70
2021/06/19 12:56:03;;;;;;;13.07;8.27;;;29.20;96.90;;;;;;5011354;28;20029;-79